sensor_id;sensor_type;location;lat;lon;timestamp;P1;durP1;ratioP1;P2;durP2;ratioP2
75626;SDS011;67372;49.404;11.034;2023-05-10T00:02:20;7.18;;;4.43;;
75626;SDS011;67372;49.404;11.034;2023-05-10T00:04:46;7.07;;;4.55;;
75626;SDS011;67372;49.404;11.034;2023-05-10T00:07:13;7.88;;;4.93;;
75626;SDS011;67372;49.404;11.034;2023-05-10T00:09:39;6.85;;;4.50;;
75626;SDS011;67372;49.404;11.034;2023-05-10T00:12:05;5.45;;;4.10;;
75626;SDS011;67372;49.404;11.034;2023-05-10T00:14:32;7.30;;;4.95;;
75626;SDS011;67372;49.404;11.034;2023-05-10T00:16:58;6.78;;;4.50;;
75626;SDS011;67372;49.404;11.034;2023-05-10T00:19:24;8.93;;;5.45;;
75626;SDS011;67372;49.404;11.034;2023-05-10T00:21:51;9.10;;;4.82;;
75626;SDS011;67372;49.404;11.034;2023-05-10T00:24:17;8.25;;;5.15;;
75626;SDS011;67372;49.404;11.034;2023-05-10T00:26:43;8.75;;;5.40;;
75626;SDS011;67372;49.404;11.034;2023-05-10T00:29:10;7.50;;;4.85;;
75626;SDS011;67372;49.404;11.034;2023-05-10T00:31:36;7.20;;;4.95;;
75626;SDS011;67372;49.404;11.034;2023-05-10T00:34:03;8.82;;;5.18;;
75626;SDS011;67372;49.404;11.034;2023-05-10T00:36:29;7.47;;;5.15;;
75626;SDS011;67372;49.404;11.034;2023-05-10T00:38:55;7.88;;;4.80;;
75626;SDS011;67372;49.404;11.034;2023-05-10T00:41:21;7.95;;;4.93;;
75626;SDS011;67372;49.404;11.034;2023-05-10T00:43:48;7.53;;;4.78;;
75626;SDS011;67372;49.404;11.034;2023-05-10T00:46:14;7.47;;;5.28;;
75626;SDS011;67372;49.404;11.034;2023-05-10T00:51:09;9.40;;;5.50;;
75626;SDS011;67372;49.404;11.034;2023-05-10T00:53:35;9.70;;;5.38;;
75626;SDS011;67372;49.404;11.034;2023-05-10T00:56:02;8.25;;;5.43;;
75626;SDS011;67372;49.404;11.034;2023-05-10T00:58:28;8.98;;;5.60;;
75626;SDS011;67372;49.404;11.034;2023-05-10T01:00:55;8.23;;;5.20;;
75626;SDS011;67372;49.404;11.034;2023-05-10T01:03:21;9.25;;;5.60;;
75626;SDS011;67372;49.404;11.034;2023-05-10T01:05:48;9.38;;;5.68;;
75626;SDS011;67372;49.404;11.034;2023-05-10T01:08:14;10.38;;;5.28;;
75626;SDS011;67372;49.404;11.034;2023-05-10T01:10:41;7.85;;;5.05;;
75626;SDS011;67372;49.404;11.034;2023-05-10T01:13:09;8.60;;;4.95;;
75626;SDS011;67372;49.404;11.034;2023-05-10T01:15:35;11.05;;;5.07;;
75626;SDS011;67372;49.404;11.034;2023-05-10T01:18:02;7.90;;;4.80;;
75626;SDS011;67372;49.404;11.034;2023-05-10T01:20:32;9.77;;;4.95;;
75626;SDS011;67372;49.404;11.034;2023-05-10T01:23:18;7.75;;;4.95;;
75626;SDS011;67372;49.404;11.034;2023-05-10T01:26:26;7.45;;;5.10;;
75626;SDS011;67372;49.404;11.034;2023-05-10T01:29:10;9.27;;;4.85;;
75626;SDS011;67372;49.404;11.034;2023-05-10T01:32:03;9.10;;;4.68;;
75626;SDS011;67372;49.404;11.034;2023-05-10T01:34:44;8.57;;;5.10;;
75626;SDS011;67372;49.404;11.034;2023-05-10T01:37:24;8.77;;;4.72;;
75626;SDS011;67372;49.404;11.034;2023-05-10T01:40:02;8.52;;;5.15;;
75626;SDS011;67372;49.404;11.034;2023-05-10T01:42:47;10.02;;;5.32;;
75626;SDS011;67372;49.404;11.034;2023-05-10T01:45:24;9.15;;;5.22;;
75626;SDS011;67372;49.404;11.034;2023-05-10T01:50:34;7.55;;;4.82;;
75626;SDS011;67372;49.404;11.034;2023-05-10T01:53:02;8.02;;;4.70;;
75626;SDS011;67372;49.404;11.034;2023-05-10T01:55:33;7.30;;;4.65;;
75626;SDS011;67372;49.404;11.034;2023-05-10T01:58:07;8.45;;;4.95;;
75626;SDS011;67372;49.404;11.034;2023-05-10T02:00:40;10.95;;;4.75;;
75626;SDS011;67372;49.404;11.034;2023-05-10T02:03:09;7.82;;;4.93;;
75626;SDS011;67372;49.404;11.034;2023-05-10T02:05:37;7.00;;;4.47;;
75626;SDS011;67372;49.404;11.034;2023-05-10T02:08:05;9.13;;;4.93;;
75626;SDS011;67372;49.404;11.034;2023-05-10T02:10:34;8.23;;;4.72;;
75626;SDS011;67372;49.404;11.034;2023-05-10T02:13:01;6.53;;;3.97;;
75626;SDS011;67372;49.404;11.034;2023-05-10T02:15:29;5.57;;;3.58;;
75626;SDS011;67372;49.404;11.034;2023-05-10T02:17:57;5.70;;;3.85;;
75626;SDS011;67372;49.404;11.034;2023-05-10T02:20:25;6.50;;;3.60;;
75626;SDS011;67372;49.404;11.034;2023-05-10T02:22:54;6.18;;;3.95;;
75626;SDS011;67372;49.404;11.034;2023-05-10T02:25:22;5.88;;;3.75;;
75626;SDS011;67372;49.404;11.034;2023-05-10T02:27:49;6.72;;;3.58;;
75626;SDS011;67372;49.404;11.034;2023-05-10T02:30:19;5.05;;;3.40;;
75626;SDS011;67372;49.404;11.034;2023-05-10T02:32:47;5.15;;;3.20;;
75626;SDS011;67372;49.404;11.034;2023-05-10T02:35:15;5.32;;;3.47;;
75626;SDS011;67372;49.404;11.034;2023-05-10T02:37:43;5.65;;;3.58;;
75626;SDS011;67372;49.404;11.034;2023-05-10T02:40:11;7.82;;;4.85;;
75626;SDS011;67372;49.404;11.034;2023-05-10T02:42:38;6.60;;;4.18;;
75626;SDS011;67372;49.404;11.034;2023-05-10T02:45:13;6.82;;;4.10;;
75626;SDS011;67372;49.404;11.034;2023-05-10T02:47:49;5.97;;;3.95;;
75626;SDS011;67372;49.404;11.034;2023-05-10T02:50:16;6.40;;;4.28;;
75626;SDS011;67372;49.404;11.034;2023-05-10T02:52:46;5.53;;;3.40;;
75626;SDS011;67372;49.404;11.034;2023-05-10T02:55:14;4.78;;;2.65;;
75626;SDS011;67372;49.404;11.034;2023-05-10T02:57:44;3.03;;;2.05;;
75626;SDS011;67372;49.404;11.034;2023-05-10T03:00:16;2.42;;;1.83;;
75626;SDS011;67372;49.404;11.034;2023-05-10T03:02:43;2.80;;;1.90;;
75626;SDS011;67372;49.404;11.034;2023-05-10T03:05:10;2.47;;;1.60;;
75626;SDS011;67372;49.404;11.034;2023-05-10T03:07:36;2.83;;;1.88;;
75626;SDS011;67372;49.404;11.034;2023-05-10T03:10:03;3.17;;;1.77;;
75626;SDS011;67372;49.404;11.034;2023-05-10T03:12:41;2.03;;;1.60;;
75626;SDS011;67372;49.404;11.034;2023-05-10T03:15:32;3.15;;;1.70;;
75626;SDS011;67372;49.404;11.034;2023-05-10T03:18:13;2.95;;;1.30;;
75626;SDS011;67372;49.404;11.034;2023-05-10T03:20:50;1.60;;;1.13;;
75626;SDS011;67372;49.404;11.034;2023-05-10T03:23:27;1.27;;;1.00;;
75626;SDS011;67372;49.404;11.034;2023-05-10T03:26:00;0.98;;;0.80;;
75626;SDS011;67372;49.404;11.034;2023-05-10T03:28:27;1.25;;;0.77;;
75626;SDS011;67372;49.404;11.034;2023-05-10T03:30:54;1.58;;;0.98;;
75626;SDS011;67372;49.404;11.034;2023-05-10T03:33:22;1.15;;;0.80;;
75626;SDS011;67372;49.404;11.034;2023-05-10T03:35:48;1.35;;;0.90;;
75626;SDS011;67372;49.404;11.034;2023-05-10T03:38:14;2.15;;;0.88;;
75626;SDS011;67372;49.404;11.034;2023-05-10T03:40:41;1.00;;;0.70;;
75626;SDS011;67372;49.404;11.034;2023-05-10T03:43:07;0.70;;;0.70;;
75626;SDS011;67372;49.404;11.034;2023-05-10T03:45:34;1.17;;;0.82;;
75626;SDS011;67372;49.404;11.034;2023-05-10T03:48:00;2.17;;;0.70;;
75626;SDS011;67372;49.404;11.034;2023-05-10T03:50:27;1.05;;;0.65;;
75626;SDS011;67372;49.404;11.034;2023-05-10T03:52:53;0.60;;;0.60;;
75626;SDS011;67372;49.404;11.034;2023-05-10T03:55:20;1.23;;;0.80;;
75626;SDS011;67372;49.404;11.034;2023-05-10T03:57:46;0.80;;;0.65;;
75626;SDS011;67372;49.404;11.034;2023-05-10T04:00:13;1.08;;;0.70;;
75626;SDS011;67372;49.404;11.034;2023-05-10T04:02:40;1.95;;;1.00;;
75626;SDS011;67372;49.404;11.034;2023-05-10T04:05:06;0.80;;;0.70;;
75626;SDS011;67372;49.404;11.034;2023-05-10T04:07:33;2.15;;;0.70;;
75626;SDS011;67372;49.404;11.034;2023-05-10T04:09:59;1.27;;;0.70;;
75626;SDS011;67372;49.404;11.034;2023-05-10T04:12:26;1.10;;;0.65;;
75626;SDS011;67372;49.404;11.034;2023-05-10T04:14:52;0.85;;;0.70;;
75626;SDS011;67372;49.404;11.034;2023-05-10T04:17:18;4.43;;;0.80;;
75626;SDS011;67372;49.404;11.034;2023-05-10T04:19:45;0.82;;;0.70;;
75626;SDS011;67372;49.404;11.034;2023-05-10T04:22:11;2.13;;;0.60;;
75626;SDS011;67372;49.404;11.034;2023-05-10T04:24:38;0.50;;;0.43;;
75626;SDS011;67372;49.404;11.034;2023-05-10T04:27:04;0.73;;;0.65;;
75626;SDS011;67372;49.404;11.034;2023-05-10T04:29:30;0.60;;;0.50;;
75626;SDS011;67372;49.404;11.034;2023-05-10T04:31:57;0.60;;;0.60;;
75626;SDS011;67372;49.404;11.034;2023-05-10T04:34:23;0.80;;;0.60;;
75626;SDS011;67372;49.404;11.034;2023-05-10T04:36:49;0.80;;;0.60;;
75626;SDS011;67372;49.404;11.034;2023-05-10T04:39:16;0.82;;;0.50;;
75626;SDS011;67372;49.404;11.034;2023-05-10T04:41:42;0.88;;;0.55;;
75626;SDS011;67372;49.404;11.034;2023-05-10T04:44:08;1.40;;;0.50;;
75626;SDS011;67372;49.404;11.034;2023-05-10T04:46:35;0.68;;;0.50;;
75626;SDS011;67372;49.404;11.034;2023-05-10T04:49:01;0.50;;;0.50;;
75626;SDS011;67372;49.404;11.034;2023-05-10T04:51:27;0.60;;;0.47;;
75626;SDS011;67372;49.404;11.034;2023-05-10T04:53:54;0.68;;;0.55;;
75626;SDS011;67372;49.404;11.034;2023-05-10T04:56:31;0.90;;;0.60;;
75626;SDS011;67372;49.404;11.034;2023-05-10T04:58:57;1.73;;;0.60;;
75626;SDS011;67372;49.404;11.034;2023-05-10T05:01:24;0.77;;;0.50;;
75626;SDS011;67372;49.404;11.034;2023-05-10T05:03:50;0.77;;;0.50;;
75626;SDS011;67372;49.404;11.034;2023-05-10T05:06:16;0.50;;;0.50;;
75626;SDS011;67372;49.404;11.034;2023-05-10T05:08:43;0.70;;;0.57;;
75626;SDS011;67372;49.404;11.034;2023-05-10T05:11:09;0.90;;;0.63;;
75626;SDS011;67372;49.404;11.034;2023-05-10T05:13:36;0.70;;;0.50;;
75626;SDS011;67372;49.404;11.034;2023-05-10T05:16:02;0.73;;;0.60;;
75626;SDS011;67372;49.404;11.034;2023-05-10T05:18:29;0.93;;;0.70;;
75626;SDS011;67372;49.404;11.034;2023-05-10T05:20:55;1.27;;;0.63;;
75626;SDS011;67372;49.404;11.034;2023-05-10T05:23:21;0.80;;;0.63;;
75626;SDS011;67372;49.404;11.034;2023-05-10T05:25:48;1.05;;;0.68;;
75626;SDS011;67372;49.404;11.034;2023-05-10T05:28:14;0.80;;;0.60;;
75626;SDS011;67372;49.404;11.034;2023-05-10T05:30:40;0.68;;;0.65;;
75626;SDS011;67372;49.404;11.034;2023-05-10T05:33:07;0.82;;;0.60;;
75626;SDS011;67372;49.404;11.034;2023-05-10T05:35:33;0.90;;;0.75;;
75626;SDS011;67372;49.404;11.034;2023-05-10T05:37:59;0.82;;;0.68;;
75626;SDS011;67372;49.404;11.034;2023-05-10T05:40:26;1.17;;;0.70;;
75626;SDS011;67372;49.404;11.034;2023-05-10T05:42:52;0.70;;;0.70;;
75626;SDS011;67372;49.404;11.034;2023-05-10T05:45:18;0.73;;;0.65;;
75626;SDS011;67372;49.404;11.034;2023-05-10T05:47:45;1.15;;;0.73;;
75626;SDS011;67372;49.404;11.034;2023-05-10T05:50:12;0.95;;;0.70;;
75626;SDS011;67372;49.404;11.034;2023-05-10T05:52:38;1.00;;;0.70;;
75626;SDS011;67372;49.404;11.034;2023-05-10T05:55:04;0.90;;;0.70;;
75626;SDS011;67372;49.404;11.034;2023-05-10T05:57:31;0.50;;;0.50;;
75626;SDS011;67372;49.404;11.034;2023-05-10T05:59:57;1.02;;;0.65;;
75626;SDS011;67372;49.404;11.034;2023-05-10T06:02:23;0.73;;;0.73;;
75626;SDS011;67372;49.404;11.034;2023-05-10T06:04:50;1.38;;;1.10;;
75626;SDS011;67372;49.404;11.034;2023-05-10T06:07:16;1.52;;;0.90;;
75626;SDS011;67372;49.404;11.034;2023-05-10T06:09:43;1.75;;;1.05;;
75626;SDS011;67372;49.404;11.034;2023-05-10T06:12:09;1.15;;;0.90;;
75626;SDS011;67372;49.404;11.034;2023-05-10T06:14:35;1.30;;;0.80;;
75626;SDS011;67372;49.404;11.034;2023-05-10T06:17:02;1.42;;;1.00;;
75626;SDS011;67372;49.404;11.034;2023-05-10T06:19:28;1.75;;;1.00;;
75626;SDS011;67372;49.404;11.034;2023-05-10T06:21:55;1.73;;;1.15;;
75626;SDS011;67372;49.404;11.034;2023-05-10T06:24:21;0.88;;;0.88;;
75626;SDS011;67372;49.404;11.034;2023-05-10T06:26:47;1.40;;;1.00;;
75626;SDS011;67372;49.404;11.034;2023-05-10T06:29:14;1.30;;;1.00;;
75626;SDS011;67372;49.404;11.034;2023-05-10T06:31:40;1.25;;;1.10;;
75626;SDS011;67372;49.404;11.034;2023-05-10T06:34:06;1.83;;;1.10;;
75626;SDS011;67372;49.404;11.034;2023-05-10T06:36:33;1.90;;;1.00;;
75626;SDS011;67372;49.404;11.034;2023-05-10T06:39:00;1.67;;;1.23;;
75626;SDS011;67372;49.404;11.034;2023-05-10T06:41:26;1.55;;;1.05;;
75626;SDS011;67372;49.404;11.034;2023-05-10T06:43:52;3.38;;;1.00;;
75626;SDS011;67372;49.404;11.034;2023-05-10T06:46:18;1.05;;;0.80;;
75626;SDS011;67372;49.404;11.034;2023-05-10T06:48:45;1.63;;;1.00;;
75626;SDS011;67372;49.404;11.034;2023-05-10T06:51:11;2.00;;;1.08;;
75626;SDS011;67372;49.404;11.034;2023-05-10T06:53:38;2.75;;;1.00;;
75626;SDS011;67372;49.404;11.034;2023-05-10T06:56:04;1.35;;;0.95;;
75626;SDS011;67372;49.404;11.034;2023-05-10T06:58:30;1.70;;;1.23;;
75626;SDS011;67372;49.404;11.034;2023-05-10T07:01:01;1.30;;;1.00;;
75626;SDS011;67372;49.404;11.034;2023-05-10T07:03:28;1.35;;;1.10;;
75626;SDS011;67372;49.404;11.034;2023-05-10T07:05:59;1.10;;;0.93;;
75626;SDS011;67372;49.404;11.034;2023-05-10T07:08:27;2.45;;;1.10;;
75626;SDS011;67372;49.404;11.034;2023-05-10T07:10:53;1.50;;;1.30;;
75626;SDS011;67372;49.404;11.034;2023-05-10T07:13:27;1.15;;;1.00;;
75626;SDS011;67372;49.404;11.034;2023-05-10T07:15:54;1.23;;;1.08;;
75626;SDS011;67372;49.404;11.034;2023-05-10T07:18:20;1.83;;;1.05;;
75626;SDS011;67372;49.404;11.034;2023-05-10T07:20:47;1.20;;;1.10;;
75626;SDS011;67372;49.404;11.034;2023-05-10T07:23:13;1.10;;;1.00;;
75626;SDS011;67372;49.404;11.034;2023-05-10T07:25:40;1.45;;;1.08;;
75626;SDS011;67372;49.404;11.034;2023-05-10T07:28:06;1.45;;;1.17;;
75626;SDS011;67372;49.404;11.034;2023-05-10T07:30:32;1.63;;;1.38;;
75626;SDS011;67372;49.404;11.034;2023-05-10T07:32:59;2.17;;;1.70;;
75626;SDS011;67372;49.404;11.034;2023-05-10T07:35:25;2.55;;;1.30;;
75626;SDS011;67372;49.404;11.034;2023-05-10T07:37:52;1.65;;;1.17;;
75626;SDS011;67372;49.404;11.034;2023-05-10T07:40:18;1.63;;;1.30;;
75626;SDS011;67372;49.404;11.034;2023-05-10T07:42:45;1.33;;;1.20;;
75626;SDS011;67372;49.404;11.034;2023-05-10T07:45:11;1.52;;;1.20;;
75626;SDS011;67372;49.404;11.034;2023-05-10T07:47:37;1.80;;;1.45;;
75626;SDS011;67372;49.404;11.034;2023-05-10T07:50:04;1.50;;;1.20;;
75626;SDS011;67372;49.404;11.034;2023-05-10T07:52:31;1.80;;;1.20;;
75626;SDS011;67372;49.404;11.034;2023-05-10T07:54:57;2.03;;;1.10;;
75626;SDS011;67372;49.404;11.034;2023-05-10T07:57:23;1.75;;;1.35;;
75626;SDS011;67372;49.404;11.034;2023-05-10T07:59:50;2.17;;;1.30;;
75626;SDS011;67372;49.404;11.034;2023-05-10T08:02:16;2.13;;;1.48;;
75626;SDS011;67372;49.404;11.034;2023-05-10T08:04:42;1.65;;;1.20;;
75626;SDS011;67372;49.404;11.034;2023-05-10T08:07:09;1.30;;;1.20;;
75626;SDS011;67372;49.404;11.034;2023-05-10T08:09:35;1.75;;;1.40;;
75626;SDS011;67372;49.404;11.034;2023-05-10T08:12:02;1.35;;;1.10;;
75626;SDS011;67372;49.404;11.034;2023-05-10T08:14:28;1.20;;;1.10;;
75626;SDS011;67372;49.404;11.034;2023-05-10T08:16:55;2.80;;;1.45;;
75626;SDS011;67372;49.404;11.034;2023-05-10T08:19:22;1.27;;;1.10;;
75626;SDS011;67372;49.404;11.034;2023-05-10T08:21:48;1.55;;;1.20;;
75626;SDS011;67372;49.404;11.034;2023-05-10T08:24:15;1.50;;;1.20;;
75626;SDS011;67372;49.404;11.034;2023-05-10T08:26:41;1.85;;;1.30;;
75626;SDS011;67372;49.404;11.034;2023-05-10T08:29:07;2.20;;;1.10;;
75626;SDS011;67372;49.404;11.034;2023-05-10T08:31:34;1.65;;;1.55;;
75626;SDS011;67372;49.404;11.034;2023-05-10T08:34:00;1.88;;;1.40;;
75626;SDS011;67372;49.404;11.034;2023-05-10T08:36:26;2.30;;;1.50;;
75626;SDS011;67372;49.404;11.034;2023-05-10T08:38:53;3.55;;;1.70;;
75626;SDS011;67372;49.404;11.034;2023-05-10T08:41:20;3.75;;;1.65;;
75626;SDS011;67372;49.404;11.034;2023-05-10T08:43:47;1.88;;;1.42;;
75626;SDS011;67372;49.404;11.034;2023-05-10T08:46:15;1.60;;;1.48;;
75626;SDS011;67372;49.404;11.034;2023-05-10T08:48:46;1.95;;;1.30;;
75626;SDS011;67372;49.404;11.034;2023-05-10T08:51:15;1.70;;;1.30;;
75626;SDS011;67372;49.404;11.034;2023-05-10T08:53:45;1.73;;;1.30;;
75626;SDS011;67372;49.404;11.034;2023-05-10T08:56:12;1.55;;;1.40;;
75626;SDS011;67372;49.404;11.034;2023-05-10T08:58:39;2.53;;;1.48;;
75626;SDS011;67372;49.404;11.034;2023-05-10T09:01:05;2.38;;;1.90;;
75626;SDS011;67372;49.404;11.034;2023-05-10T09:03:31;2.13;;;1.67;;
75626;SDS011;67372;49.404;11.034;2023-05-10T09:05:58;3.08;;;1.80;;
75626;SDS011;67372;49.404;11.034;2023-05-10T09:08:25;2.58;;;1.92;;
75626;SDS011;67372;49.404;11.034;2023-05-10T09:10:52;2.00;;;1.65;;
75626;SDS011;67372;49.404;11.034;2023-05-10T09:13:21;3.92;;;1.92;;
75626;SDS011;67372;49.404;11.034;2023-05-10T09:15:48;2.25;;;1.75;;
75626;SDS011;67372;49.404;11.034;2023-05-10T09:18:15;1.95;;;1.67;;
75626;SDS011;67372;49.404;11.034;2023-05-10T09:20:41;2.55;;;1.90;;
75626;SDS011;67372;49.404;11.034;2023-05-10T09:23:08;2.15;;;1.88;;
75626;SDS011;67372;49.404;11.034;2023-05-10T09:25:34;2.20;;;1.70;;
75626;SDS011;67372;49.404;11.034;2023-05-10T09:28:01;2.40;;;1.73;;
75626;SDS011;67372;49.404;11.034;2023-05-10T09:30:28;2.20;;;1.77;;
75626;SDS011;67372;49.404;11.034;2023-05-10T09:32:57;1.92;;;1.60;;
75626;SDS011;67372;49.404;11.034;2023-05-10T09:35:26;2.22;;;1.85;;
75626;SDS011;67372;49.404;11.034;2023-05-10T09:37:56;2.25;;;1.75;;
75626;SDS011;67372;49.404;11.034;2023-05-10T09:40:24;3.47;;;1.73;;
75626;SDS011;67372;49.404;11.034;2023-05-10T09:42:53;3.08;;;1.50;;
75626;SDS011;67372;49.404;11.034;2023-05-10T09:45:24;2.20;;;1.65;;
75626;SDS011;67372;49.404;11.034;2023-05-10T09:47:51;2.60;;;1.40;;
75626;SDS011;67372;49.404;11.034;2023-05-10T09:50:18;1.55;;;1.20;;
75626;SDS011;67372;49.404;11.034;2023-05-10T09:52:50;2.58;;;1.50;;
75626;SDS011;67372;49.404;11.034;2023-05-10T09:58:06;2.03;;;1.40;;
75626;SDS011;67372;49.404;11.034;2023-05-10T10:00:37;2.53;;;1.40;;
75626;SDS011;67372;49.404;11.034;2023-05-10T10:03:05;2.70;;;1.48;;
75626;SDS011;67372;49.404;11.034;2023-05-10T10:05:33;2.13;;;1.20;;
75626;SDS011;67372;49.404;11.034;2023-05-10T10:08:01;1.63;;;1.40;;
75626;SDS011;67372;49.404;11.034;2023-05-10T10:10:29;2.42;;;1.40;;
75626;SDS011;67372;49.404;11.034;2023-05-10T10:12:57;1.63;;;1.15;;
75626;SDS011;67372;49.404;11.034;2023-05-10T10:15:24;2.13;;;1.10;;
75626;SDS011;67372;49.404;11.034;2023-05-10T10:17:50;1.33;;;1.10;;
75626;SDS011;67372;49.404;11.034;2023-05-10T10:20:18;1.70;;;1.13;;
75626;SDS011;67372;49.404;11.034;2023-05-10T10:22:46;1.88;;;1.08;;
75626;SDS011;67372;49.404;11.034;2023-05-10T10:25:14;1.35;;;1.20;;
75626;SDS011;67372;49.404;11.034;2023-05-10T10:27:45;1.83;;;1.00;;
75626;SDS011;67372;49.404;11.034;2023-05-10T10:35:54;1.63;;;1.13;;
75626;SDS011;67372;49.404;11.034;2023-05-10T10:38:24;1.67;;;1.25;;
75626;SDS011;67372;49.404;11.034;2023-05-10T10:41:04;2.90;;;1.50;;
75626;SDS011;67372;49.404;11.034;2023-05-10T10:43:35;1.83;;;1.40;;
75626;SDS011;67372;49.404;11.034;2023-05-10T10:46:09;1.30;;;1.10;;
75626;SDS011;67372;49.404;11.034;2023-05-10T10:48:38;1.48;;;1.13;;
75626;SDS011;67372;49.404;11.034;2023-05-10T10:51:05;1.25;;;1.00;;
75626;SDS011;67372;49.404;11.034;2023-05-10T10:53:32;1.27;;;0.98;;
75626;SDS011;67372;49.404;11.034;2023-05-10T10:56:08;1.90;;;0.90;;
75626;SDS011;67372;49.404;11.034;2023-05-10T10:58:37;1.00;;;0.80;;
75626;SDS011;67372;49.404;11.034;2023-05-10T11:01:14;1.35;;;0.95;;
75626;SDS011;67372;49.404;11.034;2023-05-10T11:06:29;3.13;;;1.15;;
75626;SDS011;67372;49.404;11.034;2023-05-10T11:08:56;2.42;;;1.40;;
75626;SDS011;67372;49.404;11.034;2023-05-10T11:11:22;1.27;;;1.10;;
75626;SDS011;67372;49.404;11.034;2023-05-10T11:13:49;2.10;;;1.00;;
75626;SDS011;67372;49.404;11.034;2023-05-10T11:16:20;1.83;;;1.55;;
75626;SDS011;67372;49.404;11.034;2023-05-10T11:21:20;2.13;;;1.17;;
75626;SDS011;67372;49.404;11.034;2023-05-10T11:26:13;1.60;;;1.50;;
75626;SDS011;67372;49.404;11.034;2023-05-10T11:28:43;2.53;;;1.40;;
75626;SDS011;67372;49.404;11.034;2023-05-10T11:31:14;2.38;;;1.52;;
75626;SDS011;67372;49.404;11.034;2023-05-10T11:33:42;2.10;;;1.60;;
75626;SDS011;67372;49.404;11.034;2023-05-10T11:36:16;1.33;;;1.17;;
75626;SDS011;67372;49.404;11.034;2023-05-10T11:38:43;2.38;;;1.40;;
75626;SDS011;67372;49.404;11.034;2023-05-10T11:41:11;2.83;;;1.70;;
75626;SDS011;67372;49.404;11.034;2023-05-10T11:46:08;3.10;;;1.80;;
75626;SDS011;67372;49.404;11.034;2023-05-10T11:48:40;2.00;;;1.60;;
75626;SDS011;67372;49.404;11.034;2023-05-10T11:51:07;2.53;;;1.63;;
75626;SDS011;67372;49.404;11.034;2023-05-10T11:53:35;1.95;;;1.50;;
75626;SDS011;67372;49.404;11.034;2023-05-10T11:56:05;1.48;;;1.30;;
75626;SDS011;67372;49.404;11.034;2023-05-10T11:58:33;1.65;;;1.55;;
75626;SDS011;67372;49.404;11.034;2023-05-10T12:01:01;1.60;;;1.50;;
75626;SDS011;67372;49.404;11.034;2023-05-10T12:03:28;2.10;;;1.60;;
75626;SDS011;67372;49.404;11.034;2023-05-10T12:05:56;1.65;;;1.35;;
75626;SDS011;67372;49.404;11.034;2023-05-10T12:08:24;1.60;;;1.50;;
75626;SDS011;67372;49.404;11.034;2023-05-10T12:10:52;1.20;;;1.10;;
75626;SDS011;67372;49.404;11.034;2023-05-10T12:13:20;2.10;;;1.40;;
75626;SDS011;67372;49.404;11.034;2023-05-10T12:15:47;1.17;;;1.00;;
75626;SDS011;67372;49.404;11.034;2023-05-10T12:18:14;1.02;;;0.95;;
75626;SDS011;67372;49.404;11.034;2023-05-10T12:23:11;1.15;;;1.00;;
75626;SDS011;67372;49.404;11.034;2023-05-10T12:25:39;1.45;;;1.10;;
75626;SDS011;67372;49.404;11.034;2023-05-10T12:28:06;1.10;;;0.95;;
75626;SDS011;67372;49.404;11.034;2023-05-10T12:30:34;1.38;;;0.80;;
75626;SDS011;67372;49.404;11.034;2023-05-10T12:33:02;1.58;;;0.80;;
75626;SDS011;67372;49.404;11.034;2023-05-10T12:35:38;2.40;;;0.85;;
75626;SDS011;67372;49.404;11.034;2023-05-10T12:41:03;2.08;;;1.10;;
75626;SDS011;67372;49.404;11.034;2023-05-10T12:43:31;1.88;;;1.10;;
75626;SDS011;67372;49.404;11.034;2023-05-10T12:45:58;1.13;;;1.02;;
75626;SDS011;67372;49.404;11.034;2023-05-10T12:48:25;1.02;;;0.93;;
75626;SDS011;67372;49.404;11.034;2023-05-10T12:50:51;1.50;;;0.90;;
75626;SDS011;67372;49.404;11.034;2023-05-10T12:53:17;1.13;;;1.00;;
75626;SDS011;67372;49.404;11.034;2023-05-10T12:55:44;1.17;;;0.90;;
75626;SDS011;67372;49.404;11.034;2023-05-10T12:58:10;2.65;;;1.10;;
75626;SDS011;67372;49.404;11.034;2023-05-10T13:00:46;1.08;;;0.98;;
75626;SDS011;67372;49.404;11.034;2023-05-10T13:03:12;1.58;;;1.10;;
75626;SDS011;67372;49.404;11.034;2023-05-10T13:05:39;1.55;;;1.20;;
75626;SDS011;67372;49.404;11.034;2023-05-10T13:08:05;1.02;;;0.93;;
75626;SDS011;67372;49.404;11.034;2023-05-10T13:10:31;2.13;;;1.30;;
75626;SDS011;67372;49.404;11.034;2023-05-10T13:12:58;1.33;;;1.17;;
75626;SDS011;67372;49.404;11.034;2023-05-10T13:15:25;1.40;;;1.00;;
75626;SDS011;67372;49.404;11.034;2023-05-10T13:20:19;1.92;;;1.10;;
75626;SDS011;67372;49.404;11.034;2023-05-10T13:22:45;1.73;;;1.20;;
75626;SDS011;67372;49.404;11.034;2023-05-10T13:25:12;3.30;;;1.20;;
75626;SDS011;67372;49.404;11.034;2023-05-10T13:27:39;1.40;;;1.30;;
75626;SDS011;67372;49.404;11.034;2023-05-10T13:30:06;1.45;;;1.20;;
75626;SDS011;67372;49.404;11.034;2023-05-10T13:32:34;1.90;;;1.20;;
75626;SDS011;67372;49.404;11.034;2023-05-10T13:35:01;1.42;;;1.33;;
75626;SDS011;67372;49.404;11.034;2023-05-10T13:37:27;1.65;;;1.40;;
75626;SDS011;67372;49.404;11.034;2023-05-10T13:39:54;1.83;;;1.17;;
75626;SDS011;67372;49.404;11.034;2023-05-10T13:42:21;1.98;;;1.30;;
75626;SDS011;67372;49.404;11.034;2023-05-10T13:44:48;1.33;;;1.10;;
75626;SDS011;67372;49.404;11.034;2023-05-10T13:47:15;1.85;;;1.20;;
75626;SDS011;67372;49.404;11.034;2023-05-10T13:49:41;2.15;;;1.30;;
75626;SDS011;67372;49.404;11.034;2023-05-10T13:52:08;1.45;;;1.25;;
75626;SDS011;67372;49.404;11.034;2023-05-10T13:54:34;1.20;;;1.10;;
75626;SDS011;67372;49.404;11.034;2023-05-10T13:57:01;1.00;;;0.95;;
75626;SDS011;67372;49.404;11.034;2023-05-10T13:59:28;1.83;;;1.13;;
75626;SDS011;67372;49.404;11.034;2023-05-10T14:04:21;3.40;;;1.08;;
75626;SDS011;67372;49.404;11.034;2023-05-10T14:06:47;1.17;;;1.02;;
75626;SDS011;67372;49.404;11.034;2023-05-10T14:09:13;1.10;;;1.00;;
75626;SDS011;67372;49.404;11.034;2023-05-10T14:11:40;2.03;;;1.05;;
75626;SDS011;67372;49.404;11.034;2023-05-10T14:14:06;1.20;;;1.10;;
75626;SDS011;67372;49.404;11.034;2023-05-10T14:16:33;1.50;;;1.20;;
75626;SDS011;67372;49.404;11.034;2023-05-10T14:18:59;2.08;;;1.10;;
75626;SDS011;67372;49.404;11.034;2023-05-10T14:21:26;1.30;;;0.80;;
75626;SDS011;67372;49.404;11.034;2023-05-10T14:23:52;1.23;;;1.13;;
75626;SDS011;67372;49.404;11.034;2023-05-10T14:26:18;1.10;;;1.00;;
75626;SDS011;67372;49.404;11.034;2023-05-10T14:28:45;1.02;;;0.90;;
75626;SDS011;67372;49.404;11.034;2023-05-10T14:31:11;1.50;;;1.10;;
75626;SDS011;67372;49.404;11.034;2023-05-10T14:33:38;1.63;;;1.10;;
75626;SDS011;67372;49.404;11.034;2023-05-10T14:36:04;1.40;;;1.30;;
75626;SDS011;67372;49.404;11.034;2023-05-10T14:38:31;1.20;;;1.08;;
75626;SDS011;67372;49.404;11.034;2023-05-10T14:40:57;2.15;;;1.17;;
75626;SDS011;67372;49.404;11.034;2023-05-10T14:43:24;1.98;;;1.30;;
75626;SDS011;67372;49.404;11.034;2023-05-10T14:45:50;1.40;;;1.30;;
75626;SDS011;67372;49.404;11.034;2023-05-10T14:48:16;1.30;;;1.20;;
75626;SDS011;67372;49.404;11.034;2023-05-10T14:50:43;2.08;;;1.40;;
75626;SDS011;67372;49.404;11.034;2023-05-10T14:53:10;1.60;;;1.45;;
75626;SDS011;67372;49.404;11.034;2023-05-10T14:55:37;3.20;;;1.50;;
75626;SDS011;67372;49.404;11.034;2023-05-10T14:58:03;1.75;;;1.40;;
75626;SDS011;67372;49.404;11.034;2023-05-10T15:00:30;1.23;;;1.13;;
75626;SDS011;67372;49.404;11.034;2023-05-10T15:02:57;1.40;;;1.30;;
75626;SDS011;67372;49.404;11.034;2023-05-10T15:05:24;1.35;;;1.25;;
75626;SDS011;67372;49.404;11.034;2023-05-10T15:07:50;2.05;;;1.20;;
75626;SDS011;67372;49.404;11.034;2023-05-10T15:10:17;2.15;;;1.30;;
75626;SDS011;67372;49.404;11.034;2023-05-10T15:12:44;2.42;;;1.67;;